Schedule Details


Flight Number: CTN4438
Departure: Kastela (LDSP) at 07:55
Arrival: Munich (EDDM) at 09:35
Route: ZDA L868 GISER L862 SABAD DCT NIPEL DCT REDBU Q112 NAPSA

Weather Information
LDSP 220430Z 02004KT CAVOK 12/08 Q1018 NOSIG
EDDM 220450Z 04004KT CAVOK 03/M02 Q1013 NOSIG
Schedule Frequency

Route Map